createdAt,value
2018-10-01T00:02:23.668Z,94.00
2018-10-01T00:04:52.108Z,93.70
2018-10-01T00:07:20.602Z,94.30
2018-10-01T00:09:49.092Z,94.40
2018-10-01T00:12:17.537Z,95.00
2018-10-01T00:14:45.999Z,94.80
2018-10-01T00:17:14.419Z,94.50
2018-10-01T00:19:48.322Z,94.10
2018-10-01T00:22:22.037Z,94.30
2018-10-01T00:24:50.493Z,94.40
2018-10-01T00:27:19.000Z,94.50
2018-10-01T00:29:47.416Z,94.10
2018-10-01T00:32:15.851Z,93.40
2018-10-01T00:34:44.318Z,93.00
2018-10-01T00:37:12.771Z,92.90
2018-10-01T00:39:41.222Z,92.80
2018-10-01T00:42:09.694Z,92.50
2018-10-01T00:44:38.128Z,92.20
2018-10-01T00:47:06.612Z,92.00
2018-10-01T00:49:35.054Z,91.90
2018-10-01T00:52:03.521Z,91.70
2018-10-01T00:54:31.940Z,91.90
2018-10-01T00:57:00.432Z,91.90
2018-10-01T00:59:28.929Z,91.90
2018-10-01T01:01:57.493Z,91.90
2018-10-01T01:04:25.913Z,92.10
2018-10-01T01:06:54.351Z,92.20
2018-10-01T01:09:22.801Z,92.20
2018-10-01T01:11:51.254Z,92.50
2018-10-01T01:14:19.713Z,93.00
2018-10-01T01:16:48.150Z,93.20
2018-10-01T01:19:16.591Z,93.50
2018-10-01T01:21:45.062Z,93.70
2018-10-01T01:24:13.605Z,93.70
2018-10-01T01:26:42.072Z,94.00
2018-10-01T01:29:10.605Z,94.30
2018-10-01T01:31:39.095Z,94.70
2018-10-01T01:34:07.603Z,94.90
2018-10-01T01:36:36.077Z,95.00
2018-10-01T01:39:06.923Z,95.00
2018-10-01T01:41:35.454Z,95.30
2018-10-01T01:44:03.956Z,95.20
2018-10-01T01:46:33.144Z,95.30
2018-10-01T01:49:01.656Z,95.20
2018-10-01T01:51:30.131Z,95.10
2018-10-01T01:53:58.683Z,95.30
2018-10-01T01:56:27.201Z,95.30
2018-10-01T01:58:55.663Z,95.40
2018-10-01T02:01:24.477Z,95.40
2018-10-01T02:03:52.929Z,95.20
2018-10-01T02:06:21.364Z,95.40
2018-10-01T02:08:49.812Z,95.50
2018-10-01T02:11:18.303Z,95.80
2018-10-01T02:13:46.740Z,96.30
2018-10-01T02:16:15.176Z,96.20
2018-10-01T02:18:43.591Z,96.30
2018-10-01T02:21:12.040Z,95.80
2018-10-01T02:23:40.528Z,95.60
2018-10-01T02:26:09.013Z,95.70
2018-10-01T02:28:37.448Z,95.80
2018-10-01T02:31:05.988Z,95.30
2018-10-01T02:33:34.626Z,95.30
2018-10-01T02:36:03.067Z,94.80
2018-10-01T02:38:31.591Z,95.20
2018-10-01T02:41:00.716Z,95.10
2018-10-01T02:43:29.599Z,95.10
2018-10-01T02:45:58.281Z,94.90
2018-10-01T02:48:27.028Z,95.10
2018-10-01T02:50:56.686Z,95.20
2018-10-01T02:53:30.453Z,95.30
2018-10-01T02:55:59.284Z,95.40
2018-10-01T02:58:28.046Z,95.60
2018-10-01T03:00:56.949Z,95.70
2018-10-01T03:03:25.569Z,96.10
2018-10-01T03:05:54.222Z,96.70
2018-10-01T03:08:22.877Z,97.30
2018-10-01T03:10:51.666Z,98.30
2018-10-01T03:13:20.222Z,98.80
2018-10-01T03:15:48.794Z,99.30
2018-10-01T03:18:17.504Z,99.00
2018-10-01T03:20:46.217Z,98.90
2018-10-01T03:23:14.757Z,99.10
2018-10-01T03:25:43.324Z,99.80
2018-10-01T03:28:12.002Z,99.50
2018-10-01T03:30:40.522Z,99.70
2018-10-01T03:33:09.438Z,99.60
2018-10-01T03:35:39.917Z,99.30
2018-10-01T03:38:08.371Z,99.50
2018-10-01T03:40:36.862Z,99.90
2018-10-01T03:43:05.297Z,99.90
2018-10-01T03:45:33.728Z,99.90
2018-10-01T03:48:02.237Z,99.90
2018-10-01T03:50:30.712Z,99.90
2018-10-01T03:52:59.170Z,99.90
2018-10-01T03:55:27.621Z,99.90
2018-10-01T03:57:56.093Z,99.90
2018-10-01T04:00:24.544Z,99.90
2018-10-01T04:02:53.063Z,99.90
2018-10-01T04:05:21.475Z,99.90
2018-10-01T04:07:49.925Z,99.90
2018-10-01T04:10:18.374Z,99.90
2018-10-01T04:12:47.189Z,99.90
2018-10-01T04:15:15.683Z,99.90
2018-10-01T04:17:44.158Z,99.90
2018-10-01T04:20:12.588Z,99.90
2018-10-01T04:22:41.123Z,99.90
2018-10-01T04:25:10.641Z,99.90
2018-10-01T04:27:39.116Z,99.90
2018-10-01T04:30:09.454Z,99.90
2018-10-01T04:32:37.919Z,99.90
2018-10-01T04:35:06.425Z,99.90
2018-10-01T04:37:34.898Z,99.90
2018-10-01T04:40:03.387Z,99.90
2018-10-01T04:42:31.872Z,99.90
2018-10-01T04:45:00.354Z,99.90
2018-10-01T04:47:28.792Z,99.90
2018-10-01T04:49:57.246Z,99.90
2018-10-01T04:52:25.718Z,99.90
2018-10-01T04:54:54.832Z,99.90
2018-10-01T04:57:23.289Z,99.90
2018-10-01T04:59:51.754Z,99.90
2018-10-01T05:02:20.227Z,99.90
2018-10-01T05:04:48.681Z,99.90
2018-10-01T05:07:17.125Z,99.90
2018-10-01T05:09:45.570Z,99.90
2018-10-01T05:12:14.018Z,99.90
2018-10-01T05:14:42.492Z,99.90
2018-10-01T05:17:10.915Z,99.90
2018-10-01T05:19:39.381Z,99.90
2018-10-01T05:22:07.881Z,99.90
2018-10-01T05:24:36.347Z,99.90
2018-10-01T05:27:04.849Z,99.90
2018-10-01T05:29:33.300Z,99.90
2018-10-01T05:32:01.783Z,99.90
2018-10-01T05:34:30.198Z,99.90
2018-10-01T05:36:58.695Z,99.90
2018-10-01T05:39:27.163Z,99.90
2018-10-01T05:41:55.600Z,99.90
2018-10-01T05:44:24.155Z,99.90
2018-10-01T05:46:52.671Z,99.90
2018-10-01T05:49:21.111Z,99.90
2018-10-01T05:51:49.580Z,99.90
2018-10-01T05:54:18.043Z,99.90
2018-10-01T05:56:46.589Z,99.90
2018-10-01T05:59:15.085Z,99.90
2018-10-01T06:01:43.676Z,99.90
2018-10-01T06:04:12.155Z,99.90
2018-10-01T06:06:40.624Z,99.90
2018-10-01T06:09:10.434Z,99.90
2018-10-01T06:11:38.906Z,99.90
2018-10-01T06:14:07.592Z,99.90
2018-10-01T06:16:36.083Z,99.90
2018-10-01T06:19:04.701Z,99.90
2018-10-01T06:21:33.235Z,99.90
2018-10-01T06:24:01.931Z,99.90
2018-10-01T06:26:30.441Z,99.90
2018-10-01T06:28:58.988Z,99.90
2018-10-01T06:31:27.507Z,99.90
2018-10-01T06:33:55.988Z,99.90
2018-10-01T06:36:24.563Z,99.90
2018-10-01T06:38:53.024Z,99.90
2018-10-01T06:41:21.784Z,99.90
2018-10-01T06:43:50.305Z,99.90
2018-10-01T06:46:18.781Z,99.90
2018-10-01T06:48:47.322Z,99.90
2018-10-01T06:51:15.860Z,99.90
2018-10-01T06:53:44.317Z,99.90
2018-10-01T06:56:12.860Z,99.90
2018-10-01T06:58:41.355Z,99.90
2018-10-01T07:01:09.901Z,99.90
2018-10-01T07:03:38.363Z,99.90
2018-10-01T07:06:06.867Z,99.90
2018-10-01T07:08:35.457Z,99.90
2018-10-01T07:11:04.057Z,99.90
2018-10-01T07:13:32.553Z,99.90
2018-10-01T07:16:01.129Z,99.90
2018-10-01T07:18:29.623Z,99.90
2018-10-01T07:20:58.235Z,99.90
2018-10-01T07:23:26.941Z,99.90
2018-10-01T07:25:55.428Z,99.90
2018-10-01T07:28:23.947Z,99.90
2018-10-01T07:30:52.564Z,99.90
2018-10-01T07:33:21.038Z,99.90
2018-10-01T07:35:49.568Z,99.20
2018-10-01T07:38:18.149Z,99.40
2018-10-01T07:40:46.633Z,99.20
2018-10-01T07:43:15.101Z,98.80
2018-10-01T07:45:43.599Z,99.10
2018-10-01T07:48:12.102Z,98.80
2018-10-01T07:50:40.645Z,98.20
2018-10-01T07:53:09.110Z,97.80
2018-10-01T07:55:37.638Z,97.90
2018-10-01T07:58:06.206Z,97.60
2018-10-01T08:00:34.663Z,97.20
2018-10-01T08:03:03.153Z,96.40
2018-10-01T08:05:31.806Z,96.60
2018-10-01T08:08:00.409Z,96.10
2018-10-01T08:10:28.862Z,95.50
2018-10-01T08:12:57.308Z,95.20
2018-10-01T08:15:25.772Z,95.80
2018-10-01T08:17:54.246Z,95.70
2018-10-01T08:20:22.757Z,95.20
2018-10-01T08:22:51.172Z,95.20
2018-10-01T08:25:19.667Z,94.60
2018-10-01T08:27:48.150Z,94.60
2018-10-01T08:30:16.612Z,94.80
2018-10-01T08:32:45.114Z,94.10
2018-10-01T08:35:13.590Z,93.30
2018-10-01T08:37:42.095Z,94.90
2018-10-01T08:40:10.592Z,93.20
2018-10-01T08:42:39.129Z,92.50
2018-10-01T08:45:08.465Z,92.60
2018-10-01T08:47:37.039Z,91.60
2018-10-01T08:50:23.910Z,91.50
2018-10-01T08:52:56.815Z,90.80
2018-10-01T08:55:25.490Z,91.20
2018-10-01T08:57:53.967Z,92.60
2018-10-01T09:00:22.488Z,92.50
2018-10-01T09:02:51.015Z,92.30
2018-10-01T09:05:19.518Z,92.10
2018-10-01T09:07:48.051Z,92.00
2018-10-01T09:10:16.548Z,95.80
2018-10-01T09:12:45.082Z,96.70
2018-10-01T09:15:13.570Z,97.20
2018-10-01T09:17:42.092Z,97.80
2018-10-01T09:20:10.650Z,98.60
2018-10-01T09:22:39.159Z,98.30
2018-10-01T09:25:07.690Z,99.20
2018-10-01T09:27:36.245Z,98.30
2018-10-01T09:30:04.823Z,98.70
2018-10-01T09:32:33.419Z,98.30
2018-10-01T09:35:01.845Z,97.50
2018-10-01T09:37:30.361Z,97.90
2018-10-01T09:39:58.921Z,97.70
2018-10-01T09:42:27.465Z,97.90
2018-10-01T09:44:55.973Z,98.50
2018-10-01T09:47:24.476Z,96.90
2018-10-01T09:49:52.970Z,95.80
2018-10-01T09:52:21.545Z,95.80
2018-10-01T09:54:50.015Z,96.40
2018-10-01T09:57:18.481Z,95.80
2018-10-01T09:59:46.969Z,96.10
2018-10-01T10:02:15.659Z,95.70
2018-10-01T10:04:44.167Z,95.50
2018-10-01T10:07:12.629Z,96.50
2018-10-01T10:09:41.104Z,96.20
2018-10-01T10:12:09.594Z,95.70
2018-10-01T10:14:38.078Z,95.60
2018-10-01T10:17:06.730Z,96.50
2018-10-01T10:19:35.225Z,96.70
2018-10-01T10:22:03.810Z,95.90
2018-10-01T10:24:32.237Z,95.90
2018-10-01T10:27:00.870Z,96.20
2018-10-01T10:29:29.442Z,95.10
2018-10-01T10:31:57.989Z,94.50
2018-10-01T10:34:26.449Z,94.40
2018-10-01T10:36:54.986Z,94.60
2018-10-01T10:39:23.567Z,95.40
2018-10-01T10:41:52.039Z,93.00
2018-10-01T10:44:20.565Z,92.70
2018-10-01T10:46:49.057Z,92.80
2018-10-01T10:49:17.576Z,91.60
2018-10-01T10:51:46.112Z,91.30
2018-10-01T10:54:14.654Z,91.50
2018-10-01T10:56:43.239Z,91.20
2018-10-01T10:59:11.841Z,89.70
2018-10-01T11:01:41.252Z,89.40
2018-10-01T11:04:09.761Z,89.40
2018-10-01T11:06:38.233Z,88.30
2018-10-01T11:09:09.064Z,85.30
2018-10-01T11:11:37.677Z,85.20
2018-10-01T11:14:06.540Z,84.00
2018-10-01T11:16:34.932Z,85.00
2018-10-01T11:19:03.600Z,86.10
2018-10-01T11:21:32.185Z,85.20
2018-10-01T11:24:01.300Z,84.80
2018-10-01T11:26:29.809Z,80.30
2018-10-01T11:28:58.442Z,78.80
2018-10-01T11:31:26.970Z,78.60
2018-10-01T11:33:55.528Z,77.80
2018-10-01T11:36:24.043Z,77.20
2018-10-01T11:38:52.496Z,76.30
2018-10-01T11:41:20.962Z,75.70
2018-10-01T11:43:49.430Z,76.50
2018-10-01T11:46:17.981Z,73.90
2018-10-01T11:48:46.633Z,72.90
2018-10-01T11:51:15.302Z,72.10
2018-10-01T11:53:43.736Z,72.60
2018-10-01T11:56:12.292Z,71.30
2018-10-01T11:58:40.820Z,71.10
2018-10-01T12:01:09.328Z,71.10
2018-10-01T12:03:37.857Z,70.80
2018-10-01T12:06:06.352Z,72.80
2018-10-01T12:08:34.888Z,73.70
2018-10-01T12:11:03.387Z,72.60
2018-10-01T12:13:31.911Z,72.50
2018-10-01T12:16:00.626Z,68.90
2018-10-01T12:18:28.904Z,69.00
2018-10-01T12:20:57.400Z,69.60
2018-10-01T12:23:25.888Z,71.60
2018-10-01T12:25:54.446Z,72.20
2018-10-01T12:28:22.973Z,72.10
2018-10-01T12:30:51.758Z,72.20
2018-10-01T12:33:20.395Z,68.80
2018-10-01T12:35:48.824Z,68.80
2018-10-01T12:38:17.444Z,68.00
2018-10-01T12:40:45.930Z,70.50
2018-10-01T12:43:14.602Z,71.40
2018-10-01T12:45:43.133Z,73.30
2018-10-01T12:48:11.684Z,75.90
2018-10-01T12:50:40.157Z,75.90
2018-10-01T12:53:08.661Z,75.10
2018-10-01T12:55:37.132Z,72.10
2018-10-01T12:58:05.735Z,72.30
2018-10-01T13:00:34.280Z,72.70
2018-10-01T13:03:02.788Z,71.20
2018-10-01T13:05:31.324Z,70.40
2018-10-01T13:08:01.621Z,72.10
2018-10-01T13:10:30.209Z,72.50
2018-10-01T13:12:58.962Z,73.50
2018-10-01T13:15:27.601Z,71.20
2018-10-01T13:17:56.667Z,71.40
2018-10-01T13:20:25.166Z,74.70
2018-10-01T13:22:53.714Z,82.50
2018-10-01T13:25:22.336Z,89.50
2018-10-01T13:27:50.885Z,93.10
2018-10-01T13:30:19.441Z,94.70
2018-10-01T13:32:48.057Z,94.80
2018-10-01T13:35:16.544Z,94.70
2018-10-01T13:37:45.928Z,95.00
2018-10-01T13:40:14.472Z,94.00
2018-10-01T13:42:43.098Z,94.80
2018-10-01T13:45:11.660Z,94.10
2018-10-01T13:47:40.173Z,94.60
2018-10-01T13:50:08.751Z,95.00
2018-10-01T13:52:37.273Z,96.10
2018-10-01T13:55:05.861Z,96.80
2018-10-01T13:57:34.415Z,97.20
2018-10-01T14:00:03.075Z,96.80
2018-10-01T14:02:31.680Z,97.00
2018-10-01T14:05:00.228Z,95.40
2018-10-01T14:07:28.740Z,96.60
2018-10-01T14:09:57.218Z,94.40
2018-10-01T14:12:25.776Z,93.60
2018-10-01T14:14:54.302Z,94.00
2018-10-01T14:17:23.027Z,93.80
2018-10-01T14:19:51.722Z,93.80
2018-10-01T14:22:20.269Z,93.50
2018-10-01T14:24:48.795Z,93.60
2018-10-01T14:27:17.296Z,94.10
2018-10-01T14:29:45.921Z,93.90
2018-10-01T14:32:14.473Z,94.40
2018-10-01T14:34:43.083Z,94.20
2018-10-01T14:37:11.614Z,94.30
2018-10-01T14:39:40.131Z,94.80
2018-10-01T14:42:08.724Z,93.60
2018-10-01T14:44:37.208Z,94.20
2018-10-01T14:47:05.731Z,92.90
2018-10-01T14:49:34.287Z,91.70
2018-10-01T14:52:02.933Z,91.90
2018-10-01T14:54:31.631Z,92.10
2018-10-01T14:57:00.112Z,92.30
2018-10-01T14:59:28.626Z,93.00
2018-10-01T15:01:57.237Z,93.40
2018-10-01T15:04:25.768Z,95.10
2018-10-01T15:06:54.325Z,96.20
2018-10-01T15:09:22.863Z,95.80
2018-10-01T15:11:51.390Z,95.20
2018-10-01T15:14:19.985Z,94.40
2018-10-01T15:16:48.528Z,94.50
2018-10-01T15:19:17.053Z,94.40
2018-10-01T15:21:45.592Z,94.40
2018-10-01T15:24:14.182Z,93.10
2018-10-01T15:26:42.660Z,93.00
2018-10-01T15:29:11.188Z,92.90
2018-10-01T15:31:39.715Z,92.70
2018-10-01T15:34:08.262Z,92.00
2018-10-01T15:36:36.871Z,92.00
2018-10-01T15:39:07.668Z,92.00
2018-10-01T15:41:36.215Z,92.10
2018-10-01T15:44:04.784Z,92.20
2018-10-01T15:46:33.315Z,91.70
2018-10-01T15:49:01.832Z,91.70
2018-10-01T15:51:30.306Z,92.00
2018-10-01T15:53:58.829Z,92.10
2018-10-01T15:56:27.370Z,92.30
2018-10-01T15:58:55.888Z,91.80
2018-10-01T16:01:24.378Z,91.90
2018-10-01T16:03:54.099Z,92.40
2018-10-01T16:06:22.612Z,92.50
2018-10-01T16:08:51.074Z,92.10
2018-10-01T16:11:19.896Z,92.30
2018-10-01T16:13:48.394Z,91.80
2018-10-01T16:16:16.912Z,92.10
2018-10-01T16:18:45.390Z,92.50
2018-10-01T16:21:13.947Z,92.70
2018-10-01T16:23:42.421Z,93.20
2018-10-01T16:26:10.923Z,92.70
2018-10-01T16:28:39.461Z,92.80
2018-10-01T16:31:07.921Z,93.20
2018-10-01T16:33:36.462Z,92.50
2018-10-01T16:36:05.014Z,92.40
2018-10-01T16:38:33.541Z,91.90
2018-10-01T16:41:03.219Z,91.80
2018-10-01T16:43:31.806Z,91.60
2018-10-01T16:46:00.391Z,91.70
2018-10-01T16:48:28.908Z,91.70
2018-10-01T16:50:57.391Z,91.60
2018-10-01T16:53:25.890Z,91.60
2018-10-01T16:55:54.352Z,91.90
2018-10-01T16:58:22.959Z,91.90
2018-10-01T17:00:51.397Z,91.60
2018-10-01T17:03:20.840Z,91.60
2018-10-01T17:05:50.057Z,91.60
2018-10-01T17:08:18.544Z,91.00
2018-10-01T17:10:47.055Z,91.00
2018-10-01T17:13:15.657Z,90.60
2018-10-01T17:15:44.069Z,90.70
2018-10-01T17:18:12.619Z,90.70
2018-10-01T17:20:41.048Z,90.80
2018-10-01T17:23:09.609Z,91.10
2018-10-01T17:25:38.119Z,91.30
2018-10-01T17:28:06.711Z,91.30
2018-10-01T17:30:35.161Z,91.90
2018-10-01T17:33:03.657Z,92.30
2018-10-01T17:35:32.198Z,92.40
2018-10-01T17:38:00.706Z,92.50
2018-10-01T17:40:29.210Z,92.70
2018-10-01T17:42:58.196Z,92.80
2018-10-01T17:45:26.752Z,92.70
2018-10-01T17:47:55.317Z,92.80
2018-10-01T17:50:23.983Z,92.80
2018-10-01T17:52:52.596Z,93.00
2018-10-01T17:55:21.079Z,92.80
2018-10-01T17:57:49.648Z,92.80
2018-10-01T18:00:18.218Z,92.80
2018-10-01T18:02:46.689Z,92.90
2018-10-01T18:05:15.354Z,92.90
2018-10-01T18:07:43.869Z,93.30
2018-10-01T18:10:12.595Z,93.10
2018-10-01T18:12:41.130Z,93.70
2018-10-01T18:15:10.046Z,93.80
2018-10-01T18:17:38.554Z,93.80
2018-10-01T18:20:07.426Z,93.70
2018-10-01T18:22:35.973Z,93.40
2018-10-01T18:25:04.681Z,93.70
2018-10-01T18:27:33.193Z,93.50
2018-10-01T18:30:01.758Z,93.80
2018-10-01T18:32:30.219Z,93.50
2018-10-01T18:34:58.717Z,93.80
2018-10-01T18:37:28.175Z,94.10
2018-10-01T18:39:57.206Z,93.90
2018-10-01T18:42:25.774Z,93.50
2018-10-01T18:44:55.098Z,93.70
2018-10-01T18:47:23.653Z,93.70
2018-10-01T18:49:52.463Z,93.80
2018-10-01T18:52:22.215Z,93.80
2018-10-01T18:54:51.625Z,93.60
2018-10-01T18:57:20.293Z,93.70
2018-10-01T18:59:48.837Z,93.70
2018-10-01T19:02:17.394Z,93.80
2018-10-01T19:04:45.909Z,93.50
2018-10-01T19:07:14.469Z,93.60
2018-10-01T19:09:43.041Z,93.70
2018-10-01T19:12:11.648Z,94.20
2018-10-01T19:14:40.141Z,94.40
2018-10-01T19:17:08.637Z,94.50
2018-10-01T19:19:37.158Z,94.60
2018-10-01T19:22:05.711Z,94.80
2018-10-01T19:24:34.174Z,95.30
2018-10-01T19:27:02.860Z,95.50
2018-10-01T19:29:31.258Z,95.60
2018-10-01T19:31:59.812Z,95.90
2018-10-01T19:34:28.995Z,96.30
2018-10-01T19:36:57.886Z,96.90
2018-10-01T19:39:26.465Z,97.40
2018-10-01T19:41:55.861Z,97.30
2018-10-01T19:44:24.318Z,97.20
2018-10-01T19:46:53.861Z,97.00
2018-10-01T19:49:24.388Z,96.90
2018-10-01T19:51:53.060Z,97.30
2018-10-01T19:54:21.554Z,97.40
2018-10-01T19:56:50.510Z,97.20
2018-10-01T19:59:19.733Z,97.40
2018-10-01T20:01:48.279Z,97.60
2018-10-01T20:04:16.942Z,97.50
2018-10-01T20:06:45.873Z,97.60
2018-10-01T20:09:14.441Z,97.70
2018-10-01T20:11:43.162Z,98.40
2018-10-01T20:14:11.731Z,98.60
2018-10-01T20:16:40.248Z,98.70
2018-10-01T20:19:08.760Z,98.60
2018-10-01T20:21:37.646Z,98.10
2018-10-01T20:24:06.202Z,97.90
2018-10-01T20:26:34.805Z,97.80
2018-10-01T20:29:03.452Z,98.10
2018-10-01T20:31:31.939Z,97.70
2018-10-01T20:34:00.438Z,98.40
2018-10-01T20:36:29.141Z,98.30
2018-10-01T20:38:57.738Z,98.20
2018-10-01T20:41:26.357Z,98.40
2018-10-01T20:43:55.745Z,98.70
2018-10-01T20:46:24.207Z,99.10
2018-10-01T20:48:52.720Z,99.70
2018-10-01T20:51:21.505Z,99.60
2018-10-01T20:53:50.060Z,99.90
2018-10-01T20:56:19.245Z,99.90
2018-10-01T20:58:47.801Z,99.80
2018-10-01T21:01:16.249Z,99.50
2018-10-01T21:03:44.797Z,99.60
2018-10-01T21:06:13.395Z,99.30
2018-10-01T21:08:41.850Z,98.90
2018-10-01T21:11:10.422Z,99.20
2018-10-01T21:13:38.979Z,99.40
2018-10-01T21:16:07.705Z,99.20
2018-10-01T21:18:36.216Z,99.20
2018-10-01T21:21:04.670Z,99.00
2018-10-01T21:23:33.178Z,99.00
2018-10-01T21:26:01.665Z,99.00
2018-10-01T21:28:30.166Z,98.70
2018-10-01T21:30:58.652Z,98.50
2018-10-01T21:33:27.117Z,98.90
2018-10-01T21:35:56.359Z,98.90
2018-10-01T21:38:24.856Z,99.20
2018-10-01T21:40:53.576Z,99.00
2018-10-01T21:43:22.093Z,98.60
2018-10-01T21:45:50.560Z,98.60
2018-10-01T21:48:19.061Z,98.70
2018-10-01T21:50:47.951Z,98.90
2018-10-01T21:53:16.372Z,98.90
2018-10-01T21:55:45.321Z,99.00
2018-10-01T21:58:15.647Z,98.90
2018-10-01T22:00:50.477Z,99.00
2018-10-01T22:03:19.178Z,98.80
2018-10-01T22:05:47.702Z,98.80
2018-10-01T22:08:16.376Z,98.90
2018-10-01T22:10:45.555Z,98.90
2018-10-01T22:13:14.524Z,98.90
2018-10-01T22:15:45.126Z,99.00
2018-10-01T22:18:15.293Z,99.40
2018-10-01T22:20:43.784Z,99.70
2018-10-01T22:23:12.444Z,99.90
2018-10-01T22:25:40.888Z,99.70
2018-10-01T22:28:09.735Z,99.50
2018-10-01T22:30:38.473Z,99.50
2018-10-01T22:33:06.980Z,99.60
2018-10-01T22:35:35.465Z,99.50
2018-10-01T22:38:03.968Z,99.90
2018-10-01T22:40:32.414Z,99.90
2018-10-01T22:44:30.301Z,99.90
2018-10-01T22:46:58.756Z,99.90
2018-10-01T22:49:27.188Z,99.90
2018-10-01T22:51:55.641Z,99.70
2018-10-01T22:54:24.070Z,99.90
2018-10-01T22:56:52.724Z,99.90
2018-10-01T22:59:21.236Z,99.90
2018-10-01T23:01:49.760Z,99.90
2018-10-01T23:04:18.214Z,99.90
2018-10-01T23:06:46.696Z,99.90
2018-10-01T23:09:15.136Z,99.90
2018-10-01T23:11:43.588Z,99.90
2018-10-01T23:14:12.014Z,99.90
2018-10-01T23:16:40.457Z,99.90
2018-10-01T23:19:08.896Z,99.90
2018-10-01T23:21:37.343Z,99.90
2018-10-01T23:24:05.826Z,99.90
2018-10-01T23:26:35.266Z,99.90
2018-10-01T23:29:03.676Z,99.90
2018-10-01T23:31:32.156Z,99.90
2018-10-01T23:34:00.591Z,99.90
2018-10-01T23:36:30.338Z,99.90
2018-10-01T23:38:58.898Z,99.90
2018-10-01T23:41:27.350Z,99.90
2018-10-01T23:43:55.788Z,99.90
2018-10-01T23:46:24.249Z,99.90
2018-10-01T23:48:52.744Z,99.90
2018-10-01T23:51:21.210Z,99.90
2018-10-01T23:53:49.695Z,99.90
2018-10-01T23:56:18.152Z,99.90
2018-10-01T23:58:46.567Z,99.90
